Portada
METAR-TAF:

METAR-TAF

Aeropuertos :

Hoedspruit, Sudáfrica

latitud: 24-21-17S, longitud: 31-03-01E, altitud: 531 m

Observación

El informe se hizo hace 1 hora y 3 minutos, a las 06:00 UTC
Viento 5 kt del sur-sureste
Temperatura
Presión 1025 hPa

METAR: FAHS 160600Z AUTO 16005KT //// // ////// ///// Q1025

Hora: 09:03 (07:03 UTC)

Pronóstico

El informe se hizo hace 1 hora y 3 minutos, a las 06:00 UTC
Pronóstico válido del 16 a las 07 UTC al 16 a las 18 UTC
Viento 8 kt del sur-sureste
Visibilidad 10 km o más
Cielo nuboso a una altura de 3000 ft

TAF: FAHS 160600Z 1607/1618 16008KT 9999 BKN030 TX25/1613Z TN19/1618Z

Observaciones y pronósticos meteorológicos de más de 4000 aeropuertos (mensajes METAR y TAF).

Los puntos amarillos y rojos representan las estaciones disponibles.

Ponga el ratón en el punto deseado para ver el nombre de la estación.

Haga clic para ver las observaciones y los pronósticos meteorológicos.

Para cambiar el mapa : haga clic en los botones verdes con una cruz de color negro para hacer un zoom, en el botón verde con un guión para alejar o en las flechas verdes para mapas adyacentes.


METAR-TAF: